Time;durP1;ratioP1;P1;durP2;ratioP2;P2;SDS_P1;SDS_P2;PMS_P1;PMS_P2;Temp;Humidity;BMP_temperature;BMP_pressure;BME280_temperature;BME280_humidity;BME280_pressure;Samples;Min_cycle;Max_cycle;Signal;HPM_P1;HPM_P2
2022/09/14 00:01:35;;;;;;;4.82;2.75;;;22.10;91.70;;;;;;5031152;28;20057;-75
2022/09/14 00:04:12;;;;;;;3.83;2.35;;;22.20;91.80;;;;;;5014973;28;20037;-75
2022/09/14 00:06:41;;;;;;;4.13;2.40;;;22.20;91.80;;;;;;5014320;28;20048;-76
2022/09/14 00:09:18;;;;;;;5.00;2.60;;;22.20;91.80;;;;;;5030585;28;20061;-75
2022/09/14 00:11:47;;;;;;;3.15;2.05;;;22.10;91.90;;;;;;5030768;28;20674;-75
2022/09/14 00:14:16;;;;;;;5.88;2.35;;;22.20;91.90;;;;;;5020087;28;20045;-76
2022/09/14 00:16:43;;;;;;;3.03;2.28;;;22.20;92.00;;;;;;5014512;28;20148;-75
2022/09/14 00:19:29;;;;;;;4.38;2.50;;;22.20;92.00;;;;;;5014455;28;20136;-75
2022/09/14 00:21:58;;;;;;;5.50;2.72;;;22.20;92.00;;;;;;5030767;28;20045;-75
2022/09/14 00:24:28;;;;;;;5.57;2.42;;;22.20;92.10;;;;;;5014657;28;20475;-76
2022/09/14 00:26:56;;;;;;;3.88;2.65;;;22.20;92.10;;;;;;5030826;28;20057;-76
2022/09/14 00:29:24;;;;;;;3.92;2.67;;;22.20;92.10;;;;;;5030302;28;20068;-77
2022/09/14 00:31:51;;;;;;;3.85;2.25;;;22.20;92.10;;;;;;5018045;28;20548;-75
2022/09/14 00:34:20;;;;;;;4.43;2.00;;;22.20;92.10;;;;;;5047220;28;20056;-76
2022/09/14 00:36:49;;;;;;;5.65;2.13;;;22.20;92.10;;;;;;5014307;28;20472;-75
2022/09/14 00:39:19;;;;;;;3.60;2.00;;;22.20;92.00;;;;;;5046644;28;20392;-75
2022/09/14 00:41:49;;;;;;;4.72;2.05;;;22.20;92.00;;;;;;5014117;28;20145;-75
2022/09/14 00:44:16;;;;;;;4.72;1.83;;;22.10;92.00;;;;;;5014677;28;20041;-75
2022/09/14 00:46:46;;;;;;;5.97;2.72;;;22.10;92.00;;;;;;5030470;28;20375;-75
2022/09/14 00:49:19;;;;;;;3.42;2.33;;;22.10;92.00;;;;;;5030327;28;20050;-75
2022/09/14 00:52:29;;;;;;;6.57;2.22;;;22.10;92.10;;;;;;5030110;28;20111;-75
2022/09/14 00:55:09;;;;;;;3.50;1.85;;;22.00;92.20;;;;;;5031176;28;20041;-75
2022/09/14 00:57:42;;;;;;;3.28;2.28;;;22.00;92.30;;;;;;4998348;28;20460;-76
2022/09/14 01:00:13;;;;;;;3.72;2.33;;;22.00;92.30;;;;;;5014446;28;20479;-76
2022/09/14 01:02:41;;;;;;;3.92;2.17;;;22.00;92.40;;;;;;5030363;28;20053;-75
2022/09/14 01:05:09;;;;;;;4.68;1.95;;;21.90;92.40;;;;;;5030294;28;20111;-76
2022/09/14 01:07:48;;;;;;;5.00;2.92;;;21.90;92.40;;;;;;5033376;28;20045;-75
2022/09/14 01:10:35;;;;;;;5.88;2.63;;;21.80;92.50;;;;;;5050137;28;20476;-75
2022/09/14 01:14:00;;;;;;;4.00;2.30;;;21.80;92.50;;;;;;5034133;28;20128;-75
2022/09/14 01:16:34;;;;;;;2.83;1.88;;;21.70;92.60;;;;;;5035648;28;20043;-75
2022/09/14 01:19:09;;;;;;;3.28;1.83;;;21.70;92.70;;;;;;5050059;28;20371;-75
2022/09/14 01:21:40;;;;;;;3.28;1.75;;;21.70;92.80;;;;;;5034041;28;20060;-75
2022/09/14 01:24:33;;;;;;;3.47;1.80;;;21.60;92.90;;;;;;5033857;28;20454;-75
2022/09/14 01:27:09;;;;;;;4.43;2.20;;;21.60;93.10;;;;;;5049950;28;20043;-75
2022/09/14 01:29:44;;;;;;;5.18;1.83;;;21.60;93.30;;;;;;5033514;28;20081;-76
2022/09/14 01:32:24;;;;;;;4.15;2.08;;;21.60;93.50;;;;;;5033219;28;20124;-76
2022/09/14 01:34:59;;;;;;;2.15;1.27;;;21.60;93.60;;;;;;5049736;28;20041;-75
2022/09/14 01:37:38;;;;;;;3.30;1.60;;;21.50;93.70;;;;;;5016612;28;20060;-75
2022/09/14 01:40:26;;;;;;;2.50;1.67;;;21.50;93.80;;;;;;5002654;28;20048;-75
2022/09/14 01:43:40;;;;;;;12.25;1.80;;;21.50;93.90;;;;;;5013088;28;20085;-76
2022/09/14 01:46:20;;;;;;;3.95;1.35;;;21.50;94.00;;;;;;5012949;28;20046;-75
2022/09/14 01:48:55;;;;;;;3.60;1.92;;;21.50;94.00;;;;;;5013583;28;20050;-76
2022/09/14 01:51:32;;;;;;;4.65;1.92;;;21.50;94.10;;;;;;5013663;28;20050;-75
2022/09/14 01:54:16;;;;;;;2.45;1.60;;;21.40;94.20;;;;;;5013441;28;20069;-76
2022/09/14 01:57:09;;;;;;;3.10;2.05;;;21.40;94.20;;;;;;5013217;28;20139;-76
2022/09/14 01:59:42;;;;;;;2.55;1.50;;;21.40;94.20;;;;;;5013678;28;20049;-76
2022/09/14 02:02:24;;;;;;;4.45;1.85;;;21.40;94.60;;;;;;5013716;28;20458;-76
2022/09/14 02:05:28;;;;;;;2.97;1.50;;;21.40;94.30;;;;;;5016864;28;20057;-76
2022/09/14 02:07:56;;;;;;;3.42;1.80;;;21.40;94.40;;;;;;5033515;28;20046;-76
2022/09/14 02:10:25;;;;;;;3.90;2.58;;;21.40;94.40;;;;;;5033465;28;20084;-76
2022/09/14 02:12:54;;;;;;;3.38;1.67;;;21.40;94.40;;;;;;5033534;28;20125;-75
2022/09/14 02:15:24;;;;;;;2.15;1.55;;;21.30;94.50;;;;;;5016801;28;20042;-76
2022/09/14 02:17:53;;;;;;;2.65;1.92;;;21.30;94.50;;;;;;5001221;28;20046;-75
2022/09/14 02:20:47;;;;;;;2.97;1.75;;;21.30;94.50;;;;;;5016276;28;20045;-76
2022/09/14 02:23:16;;;;;;;4.47;1.70;;;21.30;94.50;;;;;;5049855;28;20055;-75
2022/09/14 02:25:45;;;;;;;2.78;1.38;;;21.30;94.40;;;;;;5000261;28;20150;-76
2022/09/14 02:28:13;;;;;;;2.95;1.73;;;21.30;94.40;;;;;;5033042;28;20041;-76
2022/09/14 02:31:06;;;;;;;3.17;1.45;;;21.30;94.30;;;;;;5032706;28;20045;-76
2022/09/14 02:33:51;;;;;;;3.13;1.95;;;21.30;94.30;;;;;;5034846;28;20452;-76
2022/09/14 02:36:35;;;;;;;2.80;1.98;;;21.30;94.30;;;;;;5033689;28;20045;-76
2022/09/14 02:39:28;;;;;;;3.28;1.67;;;21.30;94.20;;;;;;5016295;28;20514;-76
2022/09/14 02:42:12;;;;;;;3.20;1.50;;;21.30;94.10;;;;;;5032585;28;20455;-76
2022/09/14 02:44:58;;;;;;;4.13;1.60;;;21.30;94.10;;;;;;5000293;28;20395;-76
2022/09/14 02:47:38;;;;;;;3.13;1.80;;;21.30;94.00;;;;;;5015623;28;20052;-76
2022/09/14 02:50:24;;;;;;;2.70;1.60;;;21.30;94.00;;;;;;5032622;28;20115;-76
2022/09/14 02:53:29;;;;;;;3.40;1.77;;;21.30;93.90;;;;;;5033722;28;20228;-76
2022/09/14 02:56:03;;;;;;;3.70;1.63;;;21.40;93.90;;;;;;5033382;28;20037;-76
2022/09/14 02:58:49;;;;;;;3.28;1.52;;;21.40;93.90;;;;;;5034079;28;20037;-76
2022/09/14 03:01:19;;;;;;;1.63;1.10;;;21.30;93.80;;;;;;5010094;28;20345;-77
2022/09/14 03:03:47;;;;;;;2.92;1.75;;;21.30;93.80;;;;;;5016127;28;20041;-76
2022/09/14 03:06:14;;;;;;;3.42;1.70;;;21.30;93.80;;;;;;5016079;28;20072;-76
2022/09/14 03:08:42;;;;;;;2.75;1.95;;;21.30;93.80;;;;;;5032515;28;20050;-76
2022/09/14 03:11:10;;;;;;;2.83;1.38;;;21.20;93.70;;;;;;5015661;28;20061;-76
2022/09/14 03:13:38;;;;;;;2.53;1.63;;;21.20;93.70;;;;;;4999666;28;20135;-76
2022/09/14 03:16:12;;;;;;;2.38;1.50;;;21.20;93.70;;;;;;5015834;28;20069;-76
2022/09/14 03:18:40;;;;;;;4.53;1.85;;;21.20;93.70;;;;;;5032157;28;20502;-76
2022/09/14 03:21:13;;;;;;;3.63;1.38;;;21.30;93.70;;;;;;5015509;28;20045;-76
2022/09/14 03:23:43;;;;;;;3.72;1.80;;;21.20;93.60;;;;;;4999236;28;20057;-76
2022/09/14 03:26:14;;;;;;;3.45;1.40;;;21.20;93.60;;;;;;5031821;28;20041;-76
2022/09/14 03:28:42;;;;;;;2.60;1.40;;;21.20;93.60;;;;;;5000168;28;20475;-76
2022/09/14 03:31:11;;;;;;;3.25;1.42;;;21.20;93.50;;;;;;5015715;28;20057;-76
2022/09/14 03:33:39;;;;;;;3.10;1.65;;;21.20;93.50;;;;;;4999362;28;20050;-76
2022/09/14 03:36:17;;;;;;;3.08;1.60;;;21.20;93.50;;;;;;5031255;28;20073;-76
2022/09/14 03:38:48;;;;;;;4.00;1.67;;;21.20;93.50;;;;;;5015074;28;20443;-76
2022/09/14 03:41:16;;;;;;;2.50;1.58;;;21.10;93.40;;;;;;5015199;28;20053;-76
2022/09/14 03:43:45;;;;;;;2.97;1.30;;;21.10;93.30;;;;;;5031149;28;20045;-76
2022/09/14 03:46:20;;;;;;;2.90;1.50;;;21.10;93.30;;;;;;5014717;28;20546;-76
2022/09/14 03:48:48;;;;;;;3.10;1.30;;;21.10;93.20;;;;;;4998807;28;20140;-76
2022/09/14 03:51:16;;;;;;;3.97;1.40;;;21.20;93.20;;;;;;5014987;28;20053;-76
2022/09/14 03:53:44;;;;;;;1.90;1.10;;;21.10;93.10;;;;;;5031488;28;20072;-76
2022/09/14 03:56:18;;;;;;;1.80;1.27;;;21.20;93.00;;;;;;5030882;28;20067;-76
2022/09/14 03:58:47;;;;;;;3.58;1.30;;;21.20;93.00;;;;;;4998552;28;20132;-76
2022/09/14 04:01:17;;;;;;;4.57;2.28;;;21.20;93.00;;;;;;4998450;28;20046;-76
2022/09/14 04:03:45;;;;;;;3.72;1.60;;;21.20;93.00;;;;;;5015225;28;20506;-76
2022/09/14 04:06:14;;;;;;;5.13;2.55;;;21.20;93.30;;;;;;5023348;28;20465;-76
2022/09/14 04:08:43;;;;;;;9.27;2.45;;;21.20;93.10;;;;;;5014419;28;20076;-76
2022/09/14 04:11:15;;;;;;;4.75;1.73;;;21.20;93.10;;;;;;5014115;28;20384;-76
2022/09/14 04:13:43;;;;;;;6.95;2.53;;;21.20;93.20;;;;;;5032176;28;20037;-77
2022/09/14 04:16:11;;;;;;;4.75;2.00;;;21.20;93.20;;;;;;5017161;28;20052;-76
2022/09/14 04:18:39;;;;;;;2.45;1.67;;;21.20;93.20;;;;;;5017976;28;20045;-77
2022/09/14 04:21:16;;;;;;;5.07;2.22;;;21.30;93.30;;;;;;5050799;28;20111;-76
2022/09/14 04:23:44;;;;;;;6.80;2.58;;;21.20;93.40;;;;;;5034498;28;20152;-76
2022/09/14 04:26:32;;;;;;;5.70;2.25;;;21.30;93.40;;;;;;5033357;28;20426;-76
2022/09/14 04:28:59;;;;;;;4.30;2.80;;;21.20;93.40;;;;;;5050800;28;20065;-76
2022/09/14 04:31:27;;;;;;;6.82;1.65;;;21.20;93.40;;;;;;5017094;28;20064;-76
2022/09/14 04:33:55;;;;;;;7.78;1.70;;;21.20;93.30;;;;;;5033746;28;20040;-76
2022/09/14 04:36:29;;;;;;;3.70;1.73;;;21.20;93.20;;;;;;5017110;28;20048;-76
2022/09/14 04:38:59;;;;;;;2.83;1.77;;;21.20;93.20;;;;;;5031172;28;20710;-76
2022/09/14 04:41:28;;;;;;;2.60;1.30;;;21.30;93.20;;;;;;5050029;28;20048;-77
2022/09/14 04:43:56;;;;;;;2.47;1.50;;;21.40;93.10;;;;;;5048686;28;20056;-76
2022/09/14 04:46:26;;;;;;;4.22;1.38;;;21.50;93.10;;;;;;5012463;28;20049;-76
2022/09/14 04:48:54;;;;;;;2.13;1.17;;;21.60;93.00;;;;;;5016522;28;20356;-78
2022/09/14 04:51:25;;;;;;;2.92;1.52;;;21.70;92.90;;;;;;5039397;28;20044;-76
2022/09/14 04:53:55;;;;;;;2.83;1.42;;;21.80;92.80;;;;;;5024219;28;20068;-75
2022/09/14 04:56:24;;;;;;;4.53;1.95;;;22.00;92.70;;;;;;5030669;28;20042;-77
2022/09/14 04:58:54;;;;;;;2.70;1.70;;;22.10;92.60;;;;;;5020326;28;20088;-76
2022/09/14 05:01:27;;;;;;;5.07;2.03;;;22.20;92.50;;;;;;5012928;28;20144;-75
2022/09/14 05:03:56;;;;;;;4.25;1.50;;;22.40;92.40;;;;;;5040919;28;20140;-76
2022/09/14 05:06:27;;;;;;;3.97;1.40;;;22.50;92.40;;;;;;5028647;28;20487;-76
2022/09/14 05:08:58;;;;;;;4.55;1.60;;;22.70;92.60;;;;;;5035502;28;20037;-80
2022/09/14 05:11:29;;;;;;;5.90;2.15;;;22.80;92.30;;;;;;5029881;28;20573;-78
2022/09/14 05:13:57;;;;;;;4.13;1.92;;;23.00;92.30;;;;;;5048704;28;20072;-77
2022/09/14 05:16:31;;;;;;;5.40;1.80;;;23.10;92.10;;;;;;5030314;28;20513;-78
2022/09/14 05:19:03;;;;;;;2.35;1.52;;;23.20;92.10;;;;;;5047267;28;20118;-78
2022/09/14 05:21:33;;;;;;;2.58;1.50;;;23.40;91.90;;;;;;5030830;28;20394;-77
2022/09/14 05:24:04;;;;;;;4.10;1.48;;;23.50;91.80;;;;;;5045938;28;20156;-77
2022/09/14 05:26:34;;;;;;;4.93;1.75;;;23.70;91.70;;;;;;5030668;28;20056;-78
2022/09/14 05:29:03;;;;;;;2.50;1.30;;;23.90;91.60;;;;;;5010914;28;20049;-76
2022/09/14 05:31:33;;;;;;;4.50;1.63;;;24.00;91.50;;;;;;4960621;28;20053;-76
2022/09/14 05:34:01;;;;;;;4.30;2.00;;;24.20;91.40;;;;;;5027711;28;20049;-76
2022/09/14 05:36:29;;;;;;;4.28;1.60;;;24.30;91.30;;;;;;5020031;28;20603;-75
2022/09/14 05:38:57;;;;;;;5.43;2.00;;;24.60;91.10;;;;;;5004947;28;20059;-76
2022/09/14 05:41:27;;;;;;;5.15;2.13;;;24.70;91.00;;;;;;5014837;28;20326;-77
2022/09/14 05:43:54;;;;;;;3.88;1.95;;;24.90;91.00;;;;;;5023239;28;20045;-79
2022/09/14 05:46:24;;;;;;;3.13;1.65;;;25.10;90.90;;;;;;5017170;28;20137;-79
2022/09/14 05:48:52;;;;;;;6.43;2.28;;;25.20;90.70;;;;;;5043225;28;20402;-77
2022/09/14 05:51:22;;;;;;;5.65;2.00;;;25.40;90.50;;;;;;5051961;28;20573;-76
2022/09/14 05:53:52;;;;;;;3.80;1.98;;;25.60;90.50;;;;;;5033874;28;20053;-76
2022/09/14 05:56:21;;;;;;;3.15;2.20;;;25.80;90.40;;;;;;5034331;28;20131;-76
2022/09/14 05:58:50;;;;;;;3.78;1.67;;;25.90;89.60;;;;;;5034212;28;20048;-76
2022/09/14 06:01:23;;;;;;;4.78;1.73;;;26.00;88.90;;;;;;5051435;28;20052;-76
2022/09/14 06:03:56;;;;;;;3.53;1.80;;;26.20;88.70;;;;;;5023726;28;20056;-75
2022/09/14 06:06:26;;;;;;;4.05;1.90;;;26.20;88.40;;;;;;5031689;28;20111;-76
2022/09/14 06:08:55;;;;;;;4.03;2.35;;;26.40;88.60;;;;;;5035070;28;20041;-79
2022/09/14 06:11:28;;;;;;;3.53;1.77;;;26.50;89.00;;;;;;5033957;28;20110;-76
2022/09/14 06:13:59;;;;;;;3.08;1.70;;;26.70;89.20;;;;;;5048440;28;20049;-83
2022/09/14 06:16:27;;;;;;;2.90;1.80;;;26.90;89.40;;;;;;5043469;28;20045;-77
2022/09/14 06:18:57;;;;;;;3.22;1.73;;;27.00;89.00;;;;;;5042910;28;20128;-76
2022/09/14 06:21:30;;;;;;;2.88;1.70;;;27.10;89.20;;;;;;5024477;28;20050;-75
2022/09/14 06:23:58;;;;;;;4.05;1.50;;;27.30;89.10;;;;;;5031732;28;20437;-75
2022/09/14 06:26:25;;;;;;;2.08;1.30;;;27.40;89.00;;;;;;5031291;28;20085;-76
2022/09/14 06:28:53;;;;;;;3.17;1.50;;;27.60;88.90;;;;;;5033745;28;20049;-81
2022/09/14 06:31:24;;;;;;;4.47;1.05;;;27.70;88.80;;;;;;5040095;28;20087;-76
2022/09/14 06:33:52;;;;;;;2.22;1.48;;;27.70;88.60;;;;;;5020669;28;20503;-75
2022/09/14 06:36:22;;;;;;;2.10;1.70;;;27.90;88.50;;;;;;5048396;28;20491;-74
2022/09/14 06:38:50;;;;;;;4.38;1.30;;;28.00;88.10;;;;;;5032438;28;20047;-76
2022/09/14 06:41:20;;;;;;;2.47;1.65;;;28.00;87.70;;;;;;5015846;28;20140;-75
2022/09/14 06:43:49;;;;;;;5.90;1.38;;;28.10;88.00;;;;;;5031693;28;20155;-75
2022/09/14 06:46:23;;;;;;;5.57;1.52;;;28.10;88.00;;;;;;5031288;28;20251;-76
2022/09/14 06:48:58;;;;;;;2.00;1.10;;;28.20;88.20;;;;;;5018784;28;20094;-75
2022/09/14 06:51:30;;;;;;;5.40;1.83;;;28.30;88.20;;;;;;5014625;28;20076;-75
2022/09/14 07:08:56;;;;;;;;;;;28.60;87.90;;;;;;5105463;27;20109;-77
2022/09/14 07:11:26;;;;;;;8.88;1.50;;;28.70;88.50;;;;;;5070729;28;20282;-76
2022/09/14 07:13:57;;;;;;;2.08;1.30;;;28.80;88.20;;;;;;5070630;28;20050;-75
2022/09/14 07:16:25;;;;;;;2.22;1.20;;;29.00;87.80;;;;;;5070449;28;20504;-75
2022/09/14 07:18:54;;;;;;;3.58;1.38;;;28.90;86.90;;;;;;5105275;28;20040;-77
2022/09/14 07:21:22;;;;;;;4.18;1.48;;;28.80;87.30;;;;;;5105757;28;20048;-73
2022/09/14 07:23:51;;;;;;;3.30;1.33;;;28.80;87.70;;;;;;5105320;28;20138;-74
2022/09/14 07:26:27;;;;;;;2.10;1.50;;;28.90;87.50;;;;;;5104724;28;20165;-75
2022/09/14 07:29:00;;;;;;;3.35;1.58;;;28.90;86.80;;;;;;5087189;28;20044;-75
2022/09/14 07:31:29;;;;;;;1.52;1.00;;;29.00;86.70;;;;;;5086089;28;20532;-75
2022/09/14 07:34:02;;;;;;;1.98;1.25;;;29.10;85.90;;;;;;5103293;28;20370;-75
2022/09/14 07:36:31;;;;;;;3.10;1.50;;;29.20;85.10;;;;;;5084754;28;20054;-77
2022/09/14 07:39:02;;;;;;;4.15;1.35;;;29.40;84.90;;;;;;5103132;28;20044;-78
2022/09/14 07:41:32;;;;;;;4.00;1.60;;;29.50;82.50;;;;;;5084984;28;20070;-78
2022/09/14 07:44:02;;;;;;;3.22;1.17;;;29.60;82.50;;;;;;5102878;28;20051;-80
2022/09/14 07:46:36;;;;;;;3.38;1.40;;;29.60;82.10;;;;;;5085345;28;20055;-76
2022/09/14 07:49:05;;;;;;;3.72;1.50;;;29.80;81.10;;;;;;5104963;28;20048;-75
2022/09/14 07:51:35;;;;;;;4.10;1.42;;;29.90;80.90;;;;;;5104476;28;20036;-76
2022/09/14 07:54:04;;;;;;;1.98;1.17;;;30.00;79.50;;;;;;5086648;28;20036;-76
2022/09/14 07:56:33;;;;;;;1.98;1.20;;;30.00;77.50;;;;;;5083028;28;20062;-75
2022/09/14 07:59:03;;;;;;;2.90;1.23;;;30.00;76.20;;;;;;5084081;28;20152;-75
2022/09/14 08:01:50;;;;;;;2.40;1.38;;;29.90;75.00;;;;;;5065938;28;20354;-74
2022/09/14 08:04:18;;;;;;;2.53;1.42;;;29.70;73.70;;;;;;5083967;28;20063;-76
2022/09/14 08:06:45;;;;;;;2.53;1.20;;;29.60;73.20;;;;;;5065620;28;20063;-75
2022/09/14 08:09:13;;;;;;;2.67;1.50;;;29.70;73.30;;;;;;5073797;28;20044;-75
2022/09/14 08:11:40;;;;;;;2.13;1.42;;;29.80;73.40;;;;;;5052589;28;20455;-74
2022/09/14 08:14:10;;;;;;;2.28;1.30;;;29.90;73.20;;;;;;5070106;28;20051;-76
2022/09/14 08:16:39;;;;;;;1.60;1.20;;;29.90;73.50;;;;;;5069984;28;20114;-74
2022/09/14 08:19:12;;;;;;;2.50;1.42;;;30.00;72.80;;;;;;5036230;28;20425;-74
2022/09/14 08:21:39;;;;;;;3.38;1.10;;;30.10;73.40;;;;;;5070575;28;20036;-74
2022/09/14 08:24:17;;;;;;;1.73;1.25;;;30.20;72.90;;;;;;5052555;28;20056;-75
2022/09/14 08:26:46;;;;;;;2.90;1.60;;;30.20;73.90;;;;;;5070323;28;20047;-73
2022/09/14 08:29:15;;;;;;;1.67;1.13;;;30.40;74.60;;;;;;5070254;28;20040;-74
2022/09/14 08:31:44;;;;;;;1.80;1.30;;;30.60;74.00;;;;;;5051820;28;20048;-73
2022/09/14 08:34:12;;;;;;;2.30;1.30;;;30.70;73.70;;;;;;5069029;28;20037;-74
2022/09/14 08:36:41;;;;;;;2.75;1.30;;;30.80;73.40;;;;;;5069980;28;20040;-74
2022/09/14 08:39:10;;;;;;;2.40;1.45;;;30.80;74.30;;;;;;5069989;28;20182;-74
2022/09/14 08:41:59;;;;;;;1.55;1.10;;;30.90;74.30;;;;;;5051713;28;20112;-75
2022/09/14 08:44:34;;;;;;;4.80;1.88;;;30.80;73.90;;;;;;5069623;28;20044;-73
2022/09/14 08:47:04;;;;;;;5.20;1.30;;;30.50;74.00;;;;;;5051699;28;20044;-74
2022/09/14 08:49:53;;;;;;;2.30;1.30;;;30.40;74.00;;;;;;5051886;28;20053;-75
2022/09/14 08:52:37;;;;;;;3.65;1.35;;;30.20;74.20;;;;;;5069413;28;20044;-76
2022/09/14 08:55:28;;;;;;;5.68;1.63;;;30.00;75.00;;;;;;5070149;28;20504;-75
2022/09/14 08:58:37;;;;;;;6.63;1.70;;;30.00;73.40;;;;;;5069375;28;20126;-73
2022/09/14 09:01:21;;;;;;;3.80;1.33;;;29.80;73.50;;;;;;5064470;28;20067;-75
2022/09/14 09:04:23;;;;;;;2.90;1.20;;;30.00;74.40;;;;;;5046634;28;20041;-72
2022/09/14 09:06:57;;;;;;;2.63;2.30;;;30.20;74.40;;;;;;5053514;28;20056;-73
2022/09/14 09:09:44;;;;;;;2.65;1.27;;;30.50;74.40;;;;;;5037605;28;20514;-74
2022/09/14 09:12:18;;;;;;;2.70;1.65;;;30.50;71.90;;;;;;5061250;28;20037;-74
2022/09/14 09:14:57;;;;;;;3.22;1.60;;;30.60;72.60;;;;;;5055036;28;20048;-73
2022/09/14 09:17:38;;;;;;;2.10;1.40;;;30.60;73.40;;;;;;5065122;28;20757;-73
2022/09/14 09:20:15;;;;;;;3.45;1.80;;;30.50;73.00;;;;;;5066807;28;20036;-74
2022/09/14 09:22:49;;;;;;;2.50;1.30;;;30.40;72.10;;;;;;5047789;28;20044;-73
2022/09/14 09:25:22;;;;;;;3.75;1.30;;;30.40;71.80;;;;;;5047973;28;20067;-72
2022/09/14 09:27:55;;;;;;;3.33;1.30;;;30.30;72.40;;;;;;5030203;28;20057;-73
2022/09/14 09:30:23;;;;;;;4.50;1.50;;;30.30;71.80;;;;;;5031060;28;20052;-73
2022/09/14 09:32:52;;;;;;;4.07;2.10;;;30.30;72.00;;;;;;5050223;28;20078;-73
2022/09/14 09:35:40;;;;;;;3.35;2.28;;;30.30;72.20;;;;;;5062791;28;20124;-75
2022/09/14 09:38:23;;;;;;;3.67;1.75;;;30.20;72.20;;;;;;5029133;28;20555;-73
2022/09/14 09:41:14;;;;;;;4.03;2.40;;;30.20;71.40;;;;;;5060036;28;20127;-79
2022/09/14 09:44:01;;;;;;;3.70;2.10;;;30.50;71.50;;;;;;5022045;28;20063;-75
2022/09/14 09:46:34;;;;;;;2.85;2.17;;;30.70;70.60;;;;;;5057748;28;20067;-75
2022/09/14 09:49:23;;;;;;;4.95;1.92;;;30.80;69.40;;;;;;5055170;28;20135;-75
2022/09/14 09:51:52;;;;;;;4.10;1.48;;;30.80;69.20;;;;;;5033035;28;20135;-78
2022/09/14 09:54:28;;;;;;;2.72;1.52;;;31.00;69.70;;;;;;5054381;28;20072;-75
2022/09/14 09:56:59;;;;;;;3.10;1.80;;;31.00;69.80;;;;;;5040974;28;20487;-75
2022/09/14 09:59:36;;;;;;;3.75;1.70;;;31.10;70.00;;;;;;5047196;28;20053;-74
2022/09/14 10:02:29;;;;;;;2.28;1.40;;;31.20;69.50;;;;;;5047590;28;20044;-75
2022/09/14 10:05:01;;;;;;;6.38;2.15;;;31.10;68.50;;;;;;5047033;28;20392;-75
2022/09/14 10:07:32;;;;;;;2.83;1.63;;;30.80;69.30;;;;;;5047657;28;20080;-75
2022/09/14 10:10:06;;;;;;;2.95;1.35;;;30.70;69.60;;;;;;5030578;28;20041;-74
2022/09/14 10:12:35;;;;;;;6.65;1.80;;;30.60;70.20;;;;;;5047189;28;20044;-74
2022/09/14 10:15:19;;;;;;;2.22;1.27;;;30.50;70.60;;;;;;5044817;28;20071;-75
2022/09/14 10:18:03;;;;;;;6.25;2.17;;;30.60;70.90;;;;;;5049402;28;20588;-76
2022/09/14 10:20:31;;;;;;;4.32;1.95;;;30.80;72.60;;;;;;5045470;28;20133;-75
2022/09/14 10:23:26;;;;;;;2.97;2.20;;;30.90;72.10;;;;;;5030951;28;20117;-75
2022/09/14 10:26:13;;;;;;;;;;;31.10;71.00;;;;;;5063898;28;20044;-76
2022/09/14 10:28:48;;;;;;;5.95;1.98;;;31.10;71.10;;;;;;5048911;28;20018;-76
2022/09/14 10:31:18;;;;;;;;;;;30.90;71.30;;;;;;5044722;28;20041;-75
2022/09/14 10:33:55;;;;;;;4.45;1.83;;;30.90;71.60;;;;;;5029481;28;19924;-75
2022/09/14 10:36:36;;;;;;;4.18;1.52;;;31.00;72.50;;;;;;5047668;28;20135;-75
2022/09/14 10:39:26;;;;;;;4.82;1.52;;;30.90;71.50;;;;;;5028653;28;20151;-76
2022/09/14 10:42:11;;;;;;;4.18;1.30;;;31.00;71.80;;;;;;5029114;28;20128;-76
2022/09/14 10:45:00;;;;;;;6.93;1.73;;;30.80;70.90;;;;;;5028629;28;20037;-77
2022/09/14 10:47:53;;;;;;;3.50;1.77;;;30.80;69.90;;;;;;5030064;28;20065;-75
2022/09/14 10:50:31;;;;;;;2.88;1.30;;;30.90;69.30;;;;;;5046825;28;20143;-75
2022/09/14 10:53:27;;;;;;;2.90;1.35;;;30.90;69.60;;;;;;5028916;28;20040;-74
2022/09/14 10:56:12;;;;;;;3.60;1.50;;;30.70;69.30;;;;;;5059243;28;20161;-74
2022/09/14 10:59:03;;;;;;;5.85;1.83;;;30.70;70.20;;;;;;5053133;28;20049;-74
2022/09/14 11:02:28;;;;;;;3.53;1.52;;;30.70;69.90;;;;;;5022866;28;20052;-75
2022/09/14 11:05:11;;;;;;;1.60;1.10;;;30.90;70.30;;;;;;4941842;28;20556;-74
2022/09/14 11:08:02;;;;;;;3.03;1.38;;;31.10;68.60;;;;;;4941076;28;20131;-75
2022/09/14 11:10:50;;;;;;;2.33;1.30;;;31.20;69.20;;;;;;5021561;28;20049;-75
2022/09/14 11:13:47;;;;;;;3.70;1.50;;;31.10;68.60;;;;;;5028712;28;20053;-75
2022/09/14 11:16:29;;;;;;;3.55;1.58;;;31.30;69.20;;;;;;5046311;28;20045;-74
2022/09/14 11:19:21;;;;;;;2.45;1.38;;;31.50;69.40;;;;;;5046548;28;20132;-74
2022/09/14 11:22:36;;;;;;;2.00;1.20;;;31.30;68.00;;;;;;5046354;28;20056;-75
2022/09/14 11:25:33;;;;;;;2.47;1.35;;;31.10;67.20;;;;;;5013003;28;20053;-74
2022/09/14 11:28:07;;;;;;;1.98;1.23;;;31.20;68.00;;;;;;5036811;28;20079;-74
2022/09/14 11:30:46;;;;;;;4.18;1.48;;;31.30;67.10;;;;;;5015395;28;20162;-73
2022/09/14 11:33:26;;;;;;;1.50;1.20;;;31.10;67.20;;;;;;5048194;28;20048;-74
2022/09/14 11:36:03;;;;;;;3.53;1.50;;;30.90;66.60;;;;;;5059375;28;20424;-74
2022/09/14 11:38:41;;;;;;;4.82;1.40;;;30.80;67.60;;;;;;5034669;28;20174;-75
2022/09/14 11:41:36;;;;;;;2.38;1.35;;;31.00;68.20;;;;;;5057702;28;20064;-74
2022/09/14 11:44:09;;;;;;;3.05;1.83;;;30.90;66.80;;;;;;5029674;28;20497;-74
2022/09/14 11:46:41;;;;;;;3.28;1.45;;;31.00;67.00;;;;;;5038776;28;20189;-74
2022/09/14 11:49:18;;;;;;;1.85;1.45;;;31.00;66.70;;;;;;5039488;28;20371;-74
2022/09/14 11:51:57;;;;;;;2.97;1.67;;;30.80;67.00;;;;;;5068314;28;20044;-74
2022/09/14 11:54:26;;;;;;;4.35;1.45;;;31.00;67.20;;;;;;5058686;28;20036;-76
2022/09/14 11:56:59;;;;;;;3.00;1.42;;;31.10;66.80;;;;;;5066332;28;20362;-76
2022/09/14 11:59:49;;;;;;;2.35;1.33;;;31.20;66.50;;;;;;5037775;28;20051;-75
2022/09/14 12:02:26;;;;;;;2.42;1.27;;;31.20;64.90;;;;;;5051673;28;20056;-75
2022/09/14 12:05:06;;;;;;;2.05;1.20;;;31.30;66.00;;;;;;5049470;28;20049;-73
2022/09/14 12:07:45;;;;;;;2.22;1.17;;;31.20;65.30;;;;;;5068316;28;20133;-74
2022/09/14 12:10:13;;;;;;;1.88;1.23;;;30.80;64.30;;;;;;5050797;28;20116;-75
2022/09/14 12:12:47;;;;;;;3.72;1.27;;;30.80;64.90;;;;;;5030136;28;20132;-74
2022/09/14 12:15:24;;;;;;;3.10;1.30;;;30.60;64.60;;;;;;5057816;28;20131;-75
2022/09/14 12:18:04;;;;;;;3.03;1.25;;;30.60;67.00;;;;;;5031480;28;20059;-75
2022/09/14 12:20:41;;;;;;;2.65;1.20;;;30.60;69.90;;;;;;5060170;28;20059;-75
2022/09/14 12:23:28;;;;;;;5.28;1.90;;;30.40;71.50;;;;;;5043260;28;20083;-75
2022/09/14 12:26:05;;;;;;;1.85;1.40;;;30.20;71.90;;;;;;5040134;28;20045;-75
2022/09/14 12:28:38;;;;;;;2.63;1.30;;;30.20;73.20;;;;;;5055587;28;20162;-75
2022/09/14 12:31:09;;;;;;;1.35;1.00;;;30.00;75.00;;;;;;5024770;28;20060;-75
2022/09/14 12:33:36;;;;;;;2.17;1.30;;;30.00;75.50;;;;;;5068845;28;20048;-75
2022/09/14 12:36:05;;;;;;;2.67;1.23;;;29.80;75.40;;;;;;5046718;28;20410;-75
2022/09/14 12:38:36;;;;;;;2.15;1.08;;;29.70;77.10;;;;;;5068640;28;20044;-75
2022/09/14 12:41:07;;;;;;;2.17;1.20;;;29.50;77.80;;;;;;5027055;28;20053;-75
2022/09/14 12:43:35;;;;;;;1.92;1.00;;;29.40;78.20;;;;;;5048514;28;20041;-75
2022/09/14 12:46:21;;;;;;;2.10;1.20;;;29.20;78.00;;;;;;5030793;28;20060;-75
2022/09/14 12:48:53;;;;;;;1.60;0.95;;;29.20;78.50;;;;;;5049077;28;20044;-75
2022/09/14 12:51:35;;;;;;;2.10;1.10;;;29.30;78.80;;;;;;5047745;28;20481;-76
2022/09/14 12:54:42;;;;;;;2.80;1.50;;;29.20;80.00;;;;;;5066820;28;20036;-76
2022/09/14 12:57:41;;;;;;;2.20;1.42;;;29.10;79.60;;;;;;5025361;28;20152;-75
2022/09/14 13:00:15;;;;;;;2.50;1.35;;;28.90;80.30;;;;;;5045398;28;20072;-75
2022/09/14 13:03:08;;;;;;;3.97;1.27;;;28.90;80.00;;;;;;5069761;28;20812;-76
2022/09/14 13:05:35;;;;;;;1.48;0.98;;;28.90;80.50;;;;;;5042245;28;20047;-77
2022/09/14 13:08:12;;;;;;;1.45;0.98;;;28.90;81.00;;;;;;5069012;28;20175;-75
2022/09/14 13:10:46;;;;;;;1.42;1.17;;;28.80;80.10;;;;;;5045389;28;20056;-75
2022/09/14 13:13:20;;;;;;;2.58;1.40;;;28.80;80.80;;;;;;5034824;28;20135;-75
2022/09/14 13:15:55;;;;;;;2.33;2.08;;;28.80;80.80;;;;;;5017402;28;20052;-75
2022/09/14 13:18:22;;;;;;;2.00;1.10;;;28.80;80.30;;;;;;5069104;28;20468;-76
2022/09/14 13:20:55;;;;;;;2.13;1.23;;;28.80;81.50;;;;;;5055961;28;20776;-74
2022/09/14 13:23:28;;;;;;;3.25;1.20;;;28.90;81.60;;;;;;5040803;28;20066;-73
2022/09/14 13:25:57;;;;;;;5.03;1.85;;;28.90;81.20;;;;;;5062745;28;20077;-74
2022/09/14 13:28:30;;;;;;;2.25;1.33;;;28.90;82.30;;;;;;5068452;28;20067;-74
2022/09/14 13:31:00;;;;;;;3.20;2.03;;;28.80;82.40;;;;;;5063867;28;20052;-74
2022/09/14 13:33:28;;;;;;;2.33;1.30;;;28.80;82.90;;;;;;5068400;28;20059;-73
2022/09/14 13:35:59;;;;;;;2.58;1.42;;;28.80;83.00;;;;;;5062711;28;20037;-72
2022/09/14 13:38:36;;;;;;;2.05;1.25;;;28.80;82.80;;;;;;5030799;28;20481;-73
2022/09/14 13:41:21;;;;;;;1.95;1.38;;;28.80;83.20;;;;;;5057277;28;20517;-75
2022/09/14 13:43:53;;;;;;;2.75;1.52;;;28.60;83.40;;;;;;5032439;28;20045;-74
2022/09/14 13:46:22;;;;;;;3.00;1.27;;;28.60;83.40;;;;;;5041482;28;20122;-73